»·PEaware :: UAL1982 KSAN-KDEN

UAL1982 :: KSAN-KDEN

FLIGHT INFORMATION

Flight Status: Arrived
Operator:
United Airlines
More flights by this operator :: More flights under this callsign
Pilot: Colin A. (19898)
Aircraft: BOEING 737-200
(B732)
More flights by this aircraft type
Origin: KSAN San Diego Intl-Lindbergh
United States
Destination: KDEN Denver Intl
United States
More flights between these airports :: More routes between these airports
Route: +BRDR7 JLI PKE EED TBC HBU POWDR8
File this flight plan on PilotEdge
Remarks: PBN / A1B2 DOF / 180807 REG / N275SB EET / MMZT0008 KZAB0033 KZLA0045 KZDV0051 OPR / UAL RMK / TCAS SIMBRIEF
Altitude:
(Current/Filed)
29,000ft
Speed:
(Current/Filed)
449kts
Departed: 08-Aug-18 06:45 PM
Arrived: 08-Aug-18 08:40 PM
Distance/Time
Traveled:
740nm/1:55
Distance/Time
To Go:
Arrived

Flight Plot

Page will automatically refresh every two minutes.

Flight plan parsing failed; only flown route is shown


Map Options




Map Legend


Flown Route
Filed Route
Departure Airport
Arrival Airport
Navaid (VOR, NDB)
Fix

Horizontal Profiles

Position Reports

Time Latitude Longitude Heading Altitude Ground
Speed
08-Aug-18 18:24 32.732485 -117.205389 170 25ft 0kts
08-Aug-18 18:25 32.732485 -117.205389 170 25ft 0kts
08-Aug-18 18:26 32.732485 -117.205389 170 25ft 0kts
08-Aug-18 18:27 32.732485 -117.205389 170 25ft 0kts
08-Aug-18 18:28 32.732485 -117.205389 170 25ft 0kts
08-Aug-18 18:29 32.732485 -117.205389 170 25ft 0kts
08-Aug-18 18:30 32.732485 -117.205389 170 25ft 0kts
08-Aug-18 18:31 32.732485 -117.205389 170 25ft 0kts
08-Aug-18 18:32 32.732485 -117.205389 170 25ft 0kts
08-Aug-18 18:33 32.732485 -117.205389 170 25ft 0kts
08-Aug-18 18:34 32.732485 -117.205389 170 25ft 0kts
08-Aug-18 18:35 32.732515 -117.205395 170 25ft 1kts
08-Aug-18 18:36 32.733137 -117.205570 166 25ft 2kts
08-Aug-18 18:37 32.733706 -117.205514 206 25ft 0kts
08-Aug-18 18:38 32.733706 -117.205514 206 25ft 0kts
08-Aug-18 18:39 32.733706 -117.205515 206 25ft 0kts
08-Aug-18 18:40 32.733461 -117.206846 347 25ft 3kts
08-Aug-18 18:41 32.736059 -117.205241 90 25ft 17kts
08-Aug-18 18:42 32.734542 -117.197948 106 25ft 30kts
08-Aug-18 18:43 32.732833 -117.190904 106 25ft 22kts
08-Aug-18 18:44 32.730562 -117.181531 106 25ft 36kts
08-Aug-18 18:45 32.729541 -117.176834 81 25ft 0kts
08-Aug-18 18:46 32.731479 -117.180926 286 25ft 73kts
08-Aug-18 18:47 32.742426 -117.226821 286 1081ft 201kts
08-Aug-18 18:48 32.761908 -117.301022 287 2762ft 268kts
08-Aug-18 18:49 32.751761 -117.378495 219 4646ft 267kts
08-Aug-18 18:50 32.683577 -117.365299 136 6434ft 278kts
08-Aug-18 18:51 32.631432 -117.293840 120 7819ft 306kts
08-Aug-18 18:52 32.625219 -117.201991 86 9456ft 282kts
08-Aug-18 18:53 32.616382 -117.099247 94 11691ft 341kts
08-Aug-18 18:54 32.616245 -116.980988 83 14535ft 375kts
08-Aug-18 18:55 32.633416 -116.856652 82 17563ft 386kts
08-Aug-18 18:56 32.656795 -116.727901 65 19507ft 421kts
08-Aug-18 18:57 32.752077 -116.650831 11 21351ft 431kts
08-Aug-18 18:58 32.869527 -116.621227 3 23585ft 432kts
08-Aug-18 18:59 32.988592 -116.609962 1 25673ft 431kts
08-Aug-18 19:00 33.106460 -116.583378 8 27550ft 434kts
08-Aug-18 19:01 33.200295 -116.490617 55 28805ft 461kts
08-Aug-18 19:02 33.274225 -116.364932 53 29781ft 473kts
08-Aug-18 19:03 33.356937 -116.228099 53 28874ft 532kts
08-Aug-18 19:04 33.443642 -116.085134 53 28881ft 530kts
08-Aug-18 19:05 33.530140 -115.942571 53 28877ft 530kts
08-Aug-18 19:06 33.616738 -115.799831 53 28882ft 529kts
08-Aug-18 19:07 33.698420 -115.652296 61 28908ft 529kts
08-Aug-18 19:08 33.759269 -115.491731 68 28913ft 528kts
08-Aug-18 19:09 33.821882 -115.331909 61 28912ft 529kts
08-Aug-18 19:10 33.906750 -115.189411 38 28913ft 524kts
08-Aug-18 19:11 34.027205 -115.093754 25 28909ft 518kts
08-Aug-18 19:12 34.150924 -115.003343 31 28910ft 521kts
08-Aug-18 19:13 34.265631 -114.895700 35 28909ft 523kts
08-Aug-18 19:14 34.384653 -114.795029 28 28910ft 520kts
08-Aug-18 19:15 34.505235 -114.697285 33 28903ft 522kts
08-Aug-18 19:16 34.623217 -114.594997 30 28896ft 521kts
08-Aug-18 19:17 34.742328 -114.494021 29 28899ft 520kts
08-Aug-18 19:18 34.843664 -114.369229 58 28911ft 525kts
08-Aug-18 19:19 34.906250 -114.211400 69 28943ft 524kts
08-Aug-18 19:20 34.958458 -114.045269 70 28975ft 523kts
08-Aug-18 19:21 35.014600 -113.881746 65 29031ft 523kts
08-Aug-18 19:22 35.082216 -113.724657 60 29050ft 523kts
08-Aug-18 19:23 35.158357 -113.573030 58 29054ft 523kts
08-Aug-18 19:24 35.233224 -113.420425 61 29060ft 523kts
08-Aug-18 19:25 35.299620 -113.262371 65 29093ft 522kts
08-Aug-18 19:26 35.359447 -113.100198 66 29130ft 521kts
08-Aug-18 19:27 35.421196 -112.939423 63 29163ft 521kts
08-Aug-18 19:28 35.489410 -112.782840 61 29183ft 521kts
08-Aug-18 19:29 35.559937 -112.627151 61 29195ft 521kts
08-Aug-18 19:30 35.626088 -112.469368 64 29203ft 520kts
08-Aug-18 19:31 35.689347 -112.309309 64 29209ft 520kts
08-Aug-18 19:32 35.755221 -112.150845 62 29215ft 520kts
08-Aug-18 19:33 35.822717 -111.993418 62 29215ft 520kts
08-Aug-18 19:34 35.887857 -111.834078 63 29214ft 519kts
08-Aug-18 19:35 35.953496 -111.675440 62 29210ft 519kts
08-Aug-18 19:36 36.019375 -111.516730 63 29172ft 520kts
08-Aug-18 19:37 36.085209 -111.357449 63 29160ft 520kts
08-Aug-18 19:38 36.156705 -111.202445 58 29148ft 519kts
08-Aug-18 19:39 36.231937 -111.050903 58 29137ft 512kts
08-Aug-18 19:40 36.303761 -110.906003 58 29131ft 505kts
08-Aug-18 19:41 36.367506 -110.777219 58 29129ft 500kts
08-Aug-18 19:42 36.439946 -110.630559 58 29126ft 495kts
08-Aug-18 19:43 36.511477 -110.485580 58 29134ft 491kts
08-Aug-18 19:44 36.582589 -110.341217 58 29145ft 488kts
08-Aug-18 19:45 36.654949 -110.199053 54 29158ft 484kts
08-Aug-18 19:46 36.737337 -110.067214 48 29168ft 481kts
08-Aug-18 19:47 36.809770 -109.961241 47 29179ft 479kts
08-Aug-18 19:48 36.908150 -109.812094 50 29191ft 477kts
08-Aug-18 19:49 36.974250 -109.699820 54 29192ft 484kts
08-Aug-18 19:50 37.061641 -109.533550 57 29190ft 495kts
08-Aug-18 19:51 37.123450 -109.411454 56 29196ft 501kts
08-Aug-18 19:52 37.215132 -109.241266 53 29196ft 508kts
08-Aug-18 19:53 37.299733 -109.098262 51 29191ft 513kts
08-Aug-18 19:54 37.372236 -108.979657 51 29187ft 510kts
08-Aug-18 19:55 37.455638 -108.837650 53 29178ft 500kts
08-Aug-18 19:56 37.547150 -108.669885 55 29174ft 495kts
08-Aug-18 19:57 37.610941 -108.550968 54 29165ft 492kts
08-Aug-18 19:58 37.689322 -108.410438 53 29214ft 487kts
08-Aug-18 19:59 37.768760 -108.272833 52 29244ft 483kts
08-Aug-18 20:00 37.846988 -108.135103 53 29284ft 481kts
08-Aug-18 20:01 37.923168 -107.996230 54 29323ft 480kts
08-Aug-18 20:02 37.999535 -107.857608 53 29334ft 479kts
08-Aug-18 20:03 38.076960 -107.719788 53 29309ft 479kts
08-Aug-18 20:04 38.153749 -107.581111 53 29268ft 480kts
08-Aug-18 20:05 38.230347 -107.442126 53 29259ft 480kts
08-Aug-18 20:06 38.307051 -107.303564 53 29268ft 479kts
08-Aug-18 20:07 38.383663 -107.164386 53 29274ft 478kts
08-Aug-18 20:08 38.461778 -107.027688 50 29277ft 477kts
08-Aug-18 20:09 38.543811 -106.894127 49 29277ft 476kts
08-Aug-18 20:10 38.622825 -106.758244 53 29318ft 476kts
08-Aug-18 20:11 38.704886 -106.626958 48 29391ft 472kts
08-Aug-18 20:12 38.785640 -106.493837 51 29414ft 473kts
08-Aug-18 20:13 38.865465 -106.359847 49 29367ft 473kts
08-Aug-18 20:14 38.947232 -106.227385 49 29408ft 471kts
08-Aug-18 20:15 39.022808 -106.101925 50 27624ft 423kts
08-Aug-18 20:16 39.094573 -105.982371 50 25753ft 421kts
08-Aug-18 20:17 39.165748 -105.863968 50 24008ft 416kts
08-Aug-18 20:18 39.237018 -105.747009 49 22330ft 410kts
08-Aug-18 20:19 39.307131 -105.631431 50 20511ft 409kts
08-Aug-18 20:20 39.375976 -105.514646 51 18674ft 407kts
08-Aug-18 20:21 39.443568 -105.398304 51 17061ft 398kts
08-Aug-18 20:22 39.507175 -105.289573 51 16491ft 372kts
08-Aug-18 20:23 39.568930 -105.184678 52 14724ft 357kts
08-Aug-18 20:24 39.627746 -105.083976 52 12966ft 339kts
08-Aug-18 20:25 39.681890 -104.990969 52 11316ft 303kts
08-Aug-18 20:26 39.730212 -104.907874 53 10759ft 291kts
08-Aug-18 20:27 39.786035 -104.833907 16 10744ft 282kts
08-Aug-18 20:28 39.867595 -104.832508 358 10750ft 298kts
08-Aug-18 20:29 39.950028 -104.835014 358 10711ft 295kts
08-Aug-18 20:30 40.032297 -104.837543 358 10652ft 294kts
08-Aug-18 20:31 40.112645 -104.840084 358 9610ft 279kts
08-Aug-18 20:32 40.173734 -104.810804 68 8833ft 216kts
08-Aug-18 20:33 40.157122 -104.748279 138 8840ft 174kts
08-Aug-18 20:34 40.123278 -104.709746 141 8833ft 160kts
08-Aug-18 20:35 40.083940 -104.683977 186 8572ft 156kts
08-Aug-18 20:36 40.037362 -104.684920 181 8296ft 178kts
08-Aug-18 20:37 39.992349 -104.685964 182 7234ft 143kts
08-Aug-18 20:38 39.951996 -104.686357 179 6534ft 147kts
08-Aug-18 20:39 39.912350 -104.686400 185 5781ft 149kts
08-Aug-18 20:40 39.879585 -104.687026 179 5441ft 53kts
08-Aug-18 20:41 39.876823 -104.685982 148 5441ft 0kts
08-Aug-18 20:42 39.876195 -104.685493 150 5441ft 8kts
08-Aug-18 20:43 39.872391 -104.684966 180 5441ft 20kts
08-Aug-18 20:44 39.866489 -104.685016 180 5441ft 10kts
08-Aug-18 20:45 39.861830 -104.685060 180 5441ft 23kts
08-Aug-18 20:46 39.860353 -104.683078 85 5441ft 0kts
08-Aug-18 20:47 39.860403 -104.679506 143 5441ft 0kts
08-Aug-18 20:48 39.860099 -104.676670 87 5441ft 14kts
08-Aug-18 20:49 39.859433 -104.675748 180 5441ft 0kts
08-Aug-18 20:50 39.859433 -104.675748 180 5441ft 0kts
08-Aug-18 20:51 39.859433 -104.675748 180 5441ft 0kts
08-Aug-18 20:52 39.859433 -104.675748 180 5441ft 0kts
08-Aug-18 20:53 39.859433 -104.675748 180 5441ft 0kts

Navigation Log

Ident Type
Flight plan parsing failed, navigation log unavailable